CheckWX is a tool to help pilots better visualize weather data.  It is not intended as a substitute for an official pre-flight weather briefing.

20:55:44 UTC

FMSD METAR
Tôlanaro Airport
Tôlanaro, Comoros
Current

56 mins ago

FMSD 042000Z 08006KT 9999 FEW016 BKN033 21/19 Q1017
Observed
Apr-4 @ 20:00 UTC
Wind
  • 080° at 6 KTS
Visibility
10,000+ meters
Flight Rules
VFR
Cloud Levels
  • Few at 1,600' AGL
  • Broken at 3,300' AGL
Temperature
21°C / 70°F
Dewpoint
19°C / 66°F
Humidity
88%
Altimeter
30.03" Hg
Pressure
1016.92 hPa
Previous

2 hours ago

FMSD 041900Z 08008KT 9999 FEW016 BKN033 22/19 Q1017
Observed
Apr-4 @ 19:00 UTC
Wind
  • 080° at 8 KTS
Visibility
10,000+ meters
Flight Rules
VFR
Cloud Levels
  • Few at 1,600' AGL
  • Broken at 3,300' AGL
Temperature
22°C / 72°F
Dewpoint
19°C / 66°F
Humidity
83%
Altimeter
30.03" Hg
Pressure
1016.92 hPa
Previous

3 hours ago

FMSD 041800Z 08008KT 9999 FEW016 BKN033 22/19 Q1017
Observed
Apr-4 @ 18:00 UTC
Wind
  • 080° at 8 KTS
Visibility
10,000+ meters
Flight Rules
VFR
Cloud Levels
  • Few at 1,600' AGL
  • Broken at 3,300' AGL
Temperature
22°C / 72°F
Dewpoint
19°C / 66°F
Humidity
83%
Altimeter
30.03" Hg
Pressure
1016.92 hPa